Time;durP1;ratioP1;P1;durP2;ratioP2;P2;SDS_P1;SDS_P2;PMS_P1;PMS_P2;Temp;Humidity;BMP_temperature;BMP_pressure;BME280_temperature;BME280_humidity;BME280_pressure;Samples;Min_cycle;Max_cycle;Signal;HPM_P1;HPM_P2
2024/04/17 00:00:31;;;;;;;;;;;;;;;8.31;100.00;96869.56;5407047;26;19987;-52
2024/04/17 00:02:56;;;;;;;;;;;;;;;8.31;100.00;96862.63;5416999;26;19968;-53
2024/04/17 00:05:22;;;;;;;;;;;;;;;8.35;100.00;96871.84;5410542;26;19994;-52
2024/04/17 00:07:47;;;;;;;;;;;;;;;8.46;100.00;96869.38;5380044;26;19979;-51
2024/04/17 00:10:12;;;;;;;;;;;;;;;8.39;100.00;96868.13;5405494;26;20295;-52
2024/04/17 00:12:37;;;;;;;;;;;;;;;8.44;100.00;96868.66;5402341;26;19968;-53
2024/04/17 00:15:03;;;;;;;;;;;;;;;8.27;100.00;96874.09;5410588;26;19999;-53
2024/04/17 00:17:28;;;;;;;;;;;;;;;8.45;100.00;96877.25;5397800;26;20004;-52
2024/04/17 00:19:53;;;;;;;;;;;;;;;8.41;100.00;96870.63;5413055;26;19963;-52
2024/04/17 00:22:19;;;;;;;;;;;;;;;8.39;100.00;96873.31;5409655;26;19963;-53
2024/04/17 00:24:44;;;;;;;;;;;;;;;8.13;100.00;96874.13;5409731;26;20333;-53
2024/04/17 00:27:09;;;;;;;;;;;;;;;8.11;100.00;96878.59;5411949;26;19963;-53
2024/04/17 00:29:35;;;;;;;;;;;;;;;8.01;100.00;96876.69;5409339;26;20282;-51
2024/04/17 00:32:00;;;;;;;;;;;;;;;8.09;100.00;96874.44;5416656;26;20055;-52
2024/04/17 00:34:25;;;;;;;;;;;;;;;7.77;100.00;96873.06;5408120;26;19968;-50
2024/04/17 00:36:50;;;;;;;;;;;;;;;7.89;100.00;96873.09;5412373;26;19933;-52
2024/04/17 00:39:15;;;;;;;;;;;;;;;7.81;100.00;96865.00;5410812;26;19969;-52
2024/04/17 00:41:41;;;;;;;;;;;;;;;7.81;100.00;96865.00;5413744;26;20343;-51
2024/04/17 00:44:06;;;;;;;;;;;;;;;7.92;100.00;96862.56;5411229;26;19970;-52
2024/04/17 00:46:31;;;;;;;;;;;;;;;7.85;100.00;96861.31;5403429;26;20309;-50
2024/04/17 00:48:57;;;;;;;;;;;;;;;7.61;100.00;96857.66;5412659;26;19959;-51
2024/04/17 00:51:22;;;;;;;;;;;;;;;7.81;100.00;96851.25;5408790;26;19929;-50
2024/04/17 00:53:47;;;;;;;;;;;;;;;7.79;100.00;96855.66;5411285;26;19982;-50
2024/04/17 00:56:12;;;;;;;;;;;;;;;7.83;100.00;96851.97;5407956;26;19988;-50
2024/04/17 00:58:38;;;;;;;;;;;;;;;7.82;100.00;96852.91;5412891;26;19964;-51
2024/04/17 01:01:03;;;;;;;;;;;;;;;7.84;100.00;96849.28;5413592;26;19963;-51
2024/04/17 01:03:28;;;;;;;;;;;;;;;7.75;100.00;96849.84;5414193;26;20466;-52
2024/04/17 01:05:53;;;;;;;;;;;;;;;7.67;100.00;96857.28;5413891;26;19929;-52
2024/04/17 01:08:19;;;;;;;;;;;;;;;7.81;100.00;96854.66;5413687;26;20402;-52
2024/04/17 01:10:44;;;;;;;;;;;;;;;7.80;100.00;96846.97;5411154;26;19937;-52
2024/04/17 01:13:09;;;;;;;;;;;;;;;7.94;100.00;96842.56;5410687;26;20017;-53
2024/04/17 01:15:35;;;;;;;;;;;;;;;7.93;100.00;96846.09;5414553;26;20403;-51
2024/04/17 01:18:02;;;;;;;;;;;;;;;7.94;100.00;96850.34;5406886;26;20403;-50
2024/04/17 01:20:27;;;;;;;;;;;;;;;7.94;100.00;96850.34;5410165;26;19964;-52
2024/04/17 01:22:53;;;;;;;;;;;;;;;7.92;100.00;96849.63;5412062;26;19929;-52
2024/04/17 01:25:18;;;;;;;;;;;;;;;7.94;100.00;96847.75;5413363;26;20340;-53
2024/04/17 01:27:43;;;;;;;;;;;;;;;7.99;100.00;96845.72;5412419;26;19966;-52
2024/04/17 01:30:09;;;;;;;;;;;;;;;7.84;100.00;96851.88;5387200;26;19963;-52
2024/04/17 01:32:34;;;;;;;;;;;;;;;7.89;100.00;96844.63;5390548;26;20340;-52
2024/04/17 01:34:59;;;;;;;;;;;;;;;7.88;100.00;96844.75;5413799;26;20374;-51
2024/04/17 01:37:24;;;;;;;;;;;;;;;7.86;100.00;96842.25;5411579;26;19940;-51
2024/04/17 01:39:49;;;;;;;;;;;;;;;7.95;100.00;96843.41;5413453;26;19993;-51
2024/04/17 01:42:15;;;;;;;;;;;;;;;8.00;100.00;96847.38;5412073;26;19996;-53
2024/04/17 01:44:40;;;;;;;;;;;;;;;7.84;100.00;96844.09;5412337;26;19937;-51
2024/04/17 01:47:05;;;;;;;;;;;;;;;7.92;100.00;96843.59;5412113;26;19993;-52
2024/04/17 01:49:31;;;;;;;;;;;;;;;7.84;100.00;96849.28;5410735;26;20251;-53
2024/04/17 01:51:56;;;;;;;;;;;;;;;7.84;100.00;96853.63;5415565;26;19964;-52
2024/04/17 01:54:21;;;;;;;;;;;;;;;7.82;100.00;96840.75;5409271;26;19988;-52
2024/04/17 01:56:48;;;;;;;;;;;;;;;7.58;100.00;96847.50;5413787;26;19990;-51
2024/04/17 01:59:13;;;;;;;;;;;;;;;7.67;100.00;96841.75;5415172;26;19972;-52
2024/04/17 02:01:38;;;;;;;;;;;;;;;7.70;100.00;96840.72;5416413;26;20221;-53
2024/04/17 02:04:04;;;;;;;;;;;;;;;7.57;100.00;96838.06;5412343;26;20051;-53
2024/04/17 02:06:29;;;;;;;;;;;;;;;7.71;100.00;96847.56;5398868;26;20051;-52
2024/04/17 02:08:54;;;;;;;;;;;;;;;7.48;100.00;96838.66;5413684;26;20487;-52
2024/04/17 02:11:19;;;;;;;;;;;;;;;7.66;100.00;96850.44;5403003;26;19986;-51
2024/04/17 02:13:44;;;;;;;;;;;;;;;7.74;100.00;96845.59;5405057;26;19969;-52
2024/04/17 02:16:10;;;;;;;;;;;;;;;7.75;100.00;96844.66;5412602;26;20022;-52
2024/04/17 02:18:35;;;;;;;;;;;;;;;7.81;100.00;96852.06;5416951;26;20247;-52
2024/04/17 02:21:01;;;;;;;;;;;;;;;7.79;100.00;96840.97;5414455;26;19990;-52
2024/04/17 02:23:28;;;;;;;;;;;;;;;7.77;100.00;96849.75;5414993;26;19944;-52
2024/04/17 02:25:54;;;;;;;;;;;;;;;7.83;100.00;96839.81;5415932;26;19941;-51
2024/04/17 02:28:19;;;;;;;;;;;;;;;7.71;100.00;96843.22;5408557;26;19937;-52
2024/04/17 02:30:44;;;;;;;;;;;;;;;7.67;100.00;96843.50;5418415;26;19970;-53
2024/04/17 02:33:09;;;;;;;;;;;;;;;7.66;100.00;96847.00;5412157;26;19962;-52
2024/04/17 02:35:35;;;;;;;;;;;;;;;7.80;100.00;96846.97;5413723;26;19933;-52
2024/04/17 02:38:00;;;;;;;;;;;;;;;7.79;100.00;96835.78;5412690;26;19989;-53
2024/04/17 02:40:25;;;;;;;;;;;;;;;7.83;100.00;96845.00;5411673;26;19965;-52
2024/04/17 02:42:50;;;;;;;;;;;;;;;7.75;100.00;96843.88;5421157;26;19974;-51
2024/04/17 02:45:16;;;;;;;;;;;;;;;7.75;100.00;96844.66;5406833;26;19967;-53
2024/04/17 02:47:41;;;;;;;;;;;;;;;7.73;100.00;96835.34;5411422;26;20049;-51
2024/04/17 02:50:06;;;;;;;;;;;;;;;7.64;100.00;96836.78;5412493;26;19940;-51
2024/04/17 02:52:31;;;;;;;;;;;;;;;7.80;100.00;96842.63;5407898;26;19974;-51
2024/04/17 02:54:57;;;;;;;;;;;;;;;7.91;100.00;96845.38;5412660;26;19932;-52
2024/04/17 02:57:22;;;;;;;;;;;;;;;7.77;100.00;96840.25;5413040;26;19962;-51
2024/04/17 02:59:47;;;;;;;;;;;;;;;7.80;100.00;96846.97;5411992;26;19968;-51
2024/04/17 03:02:12;;;;;;;;;;;;;;;7.84;100.00;96844.09;5394369;26;20352;-51
2024/04/17 03:04:37;;;;;;;;;;;;;;;7.67;100.00;96852.09;5409313;26;20015;-51
2024/04/17 03:07:03;;;;;;;;;;;;;;;7.60;100.00;96845.66;5415587;26;19988;-51
2024/04/17 03:09:28;;;;;;;;;;;;;;;7.60;100.00;96844.81;5415414;26;19983;-50
2024/04/17 03:11:53;;;;;;;;;;;;;;;7.59;100.00;96856.94;5416393;26;19982;-52
2024/04/17 03:14:18;;;;;;;;;;;;;;;7.65;100.00;96853.97;5412625;26;19929;-53
2024/04/17 03:16:46;;;;;;;;;;;;;;;7.67;100.00;96854.69;5417391;26;19965;-52
2024/04/17 03:19:11;;;;;;;;;;;;;;;7.76;100.00;96855.88;5415574;26;20262;-51
2024/04/17 03:21:37;;;;;;;;;;;;;;;7.66;100.00;96850.44;5414241;26;19966;-50
2024/04/17 03:24:02;;;;;;;;;;;;;;;7.70;100.00;96856.25;5412263;26;20381;-53
2024/04/17 03:26:27;;;;;;;;;;;;;;;7.64;100.00;96857.50;5409416;26;20328;-51
2024/04/17 03:28:53;;;;;;;;;;;;;;;7.73;100.00;96851.72;5387399;26;20324;-52
2024/04/17 03:31:18;;;;;;;;;;;;;;;7.69;100.00;96865.78;5413459;26;19976;-51
2024/04/17 03:33:45;;;;;;;;;;;;;;;7.47;100.00;96870.63;5411858;26;19936;-52
2024/04/17 03:36:10;;;;;;;;;;;;;;;7.45;100.00;96877.69;5413666;26;20378;-52
2024/04/17 03:38:35;;;;;;;;;;;;;;;7.36;100.00;96878.22;5415155;26;19988;-51
2024/04/17 03:41:01;;;;;;;;;;;;;;;7.36;100.00;96887.75;5416498;26;19941;-53
2024/04/17 03:43:26;;;;;;;;;;;;;;;7.35;100.00;96889.50;5411521;26;19994;-53
2024/04/17 03:45:51;;;;;;;;;;;;;;;7.23;100.00;96887.66;5401005;26;20050;-53
2024/04/17 03:48:16;;;;;;;;;;;;;;;7.35;100.00;96892.09;5404719;26;20335;-52
2024/04/17 03:50:42;;;;;;;;;;;;;;;7.28;100.00;96898.56;5403485;26;20002;-52
2024/04/17 03:53:07;;;;;;;;;;;;;;;7.31;100.00;96898.41;5404826;26;20052;-54
2024/04/17 03:55:32;;;;;;;;;;;;;;;7.19;100.00;96901.72;5405516;26;19963;-53
2024/04/17 03:57:57;;;;;;;;;;;;;;;7.08;100.00;96916.25;5409980;26;19971;-53
2024/04/17 04:00:22;;;;;;;;;;;;;;;7.07;100.00;96915.38;5407199;26;19933;-53
2024/04/17 04:02:48;;;;;;;;;;;;;;;7.12;100.00;96918.53;5407543;26;19979;-52
2024/04/17 04:05:13;;;;;;;;;;;;;;;6.91;100.00;96927.59;5407954;26;19962;-52
2024/04/17 04:07:38;;;;;;;;;;;;;;;7.06;100.00;96918.06;5408225;26;19930;-52
2024/04/17 04:10:04;;;;;;;;;;;;;;;6.89;100.00;96919.06;5410012;26;20336;-52
2024/04/17 04:12:29;;;;;;;;;;;;;;;7.00;100.00;96921.84;5387994;26;20017;-52
2024/04/17 04:14:55;;;;;;;;;;;;;;;6.85;100.00;96922.78;5412681;26;19929;-52
2024/04/17 04:17:20;;;;;;;;;;;;;;;6.99;100.00;96919.34;5410867;26;20018;-52
2024/04/17 04:19:45;;;;;;;;;;;;;;;6.90;100.00;96923.31;5412526;26;20578;-54
2024/04/17 04:22:10;;;;;;;;;;;;;;;6.90;100.00;96919.91;5414634;26;20069;-54
2024/04/17 04:24:36;;;;;;;;;;;;;;;6.92;100.00;96918.91;5410957;26;19936;-53
2024/04/17 04:27:01;;;;;;;;;;;;;;;6.79;100.00;96928.28;5411790;26;19957;-53
2024/04/17 04:29:26;;;;;;;;;;;;;;;6.85;100.00;96927.94;5409030;26;19970;-52
2024/04/17 04:31:52;;;;;;;;;;;;;;;6.75;100.00;96921.63;5415565;26;19967;-52
2024/04/17 04:34:17;;;;;;;;;;;;;;;6.85;100.00;96925.34;5414072;26;19976;-52
2024/04/17 04:36:42;;;;;;;;;;;;;;;6.65;100.00;96923.09;5403091;26;19962;-53
2024/04/17 04:39:07;;;;;;;;;;;;;;;6.67;100.00;96923.84;5405512;26;19988;-52
2024/04/17 04:41:32;;;;;;;;;;;;;;;6.58;100.00;96929.53;5402404;26;19936;-52
2024/04/17 04:43:58;;;;;;;;;;;;;;;6.65;100.00;96928.28;5386027;26;19961;-52
2024/04/17 04:46:23;;;;;;;;;;;;;;;6.51;100.00;96927.41;5409509;26;19967;-53
2024/04/17 04:48:49;;;;;;;;;;;;;;;6.57;100.00;96925.28;5406449;26;19929;-53
2024/04/17 04:51:14;;;;;;;;;;;;;;;6.65;100.00;96935.19;5407849;26;19936;-53
2024/04/17 04:53:39;;;;;;;;;;;;;;;6.62;100.00;96936.19;5415453;26;19936;-54
2024/04/17 04:56:05;;;;;;;;;;;;;;;6.65;100.00;96930.84;5405196;26;19976;-53
2024/04/17 04:58:30;;;;;;;;;;;;;;;6.69;100.00;96927.16;5413705;26;20019;-52
2024/04/17 05:00:56;;;;;;;;;;;;;;;6.68;100.00;96930.66;5395395;26;20007;-53
2024/04/17 05:03:21;;;;;;;;;;;;;;;6.55;100.00;96932.28;5408840;26;20030;-52
2024/04/17 05:05:47;;;;;;;;;;;;;;;6.67;100.00;96923.00;5398113;26;19974;-53
2024/04/17 05:08:12;;;;;;;;;;;;;;;6.63;100.00;96929.28;5404501;26;19929;-52
2024/04/17 05:10:37;;;;;;;;;;;;;;;6.77;100.00;96930.13;5402088;26;19959;-52
2024/04/17 05:13:03;;;;;;;;;;;;;;;6.64;100.00;96934.38;5405208;26;20046;-54
2024/04/17 05:15:28;;;;;;;;;;;;;;;6.69;100.00;96937.50;5409136;26;19982;-52
2024/04/17 05:17:53;;;;;;;;;;;;;;;6.79;100.00;96937.78;5410991;26;19978;-53
2024/04/17 05:20:19;;;;;;;;;;;;;;;6.92;100.00;96939.59;5406822;26;20252;-52
2024/04/17 05:22:44;;;;;;;;;;;;;;;6.93;100.00;96946.41;5404825;26;20412;-52
2024/04/17 05:25:09;;;;;;;;;;;;;;;6.99;100.00;96942.63;5386921;26;19929;-52
2024/04/17 05:27:34;;;;;;;;;;;;;;;7.00;100.00;96947.72;5413193;26;19935;-52
2024/04/17 05:29:59;;;;;;;;;;;;;;;7.06;100.00;96947.34;5419489;26;19995;-52
2024/04/17 05:32:25;;;;;;;;;;;;;;;6.86;100.00;96950.28;5409887;26;19929;-51
2024/04/17 05:34:50;;;;;;;;;;;;;;;6.95;100.00;96944.56;5412101;26;19940;-53
2024/04/17 05:37:16;;;;;;;;;;;;;;;7.16;100.00;96947.66;5415994;26;20053;-54
2024/04/17 05:39:41;;;;;;;;;;;;;;;7.32;100.00;96953.56;5415500;26;20277;-52
2024/04/17 05:42:06;;;;;;;;;;;;;;;7.20;100.00;96952.53;5406057;26;19936;-51
2024/04/17 05:44:31;;;;;;;;;;;;;;;7.37;100.00;96952.34;5412287;26;19936;-52
2024/04/17 05:46:57;;;;;;;;;;;;;;;7.38;100.00;96954.03;5416888;26;19969;-52
2024/04/17 05:49:22;;;;;;;;;;;;;;;7.40;100.00;96952.19;5415883;26;19929;-52
2024/04/17 05:51:48;;;;;;;;;;;;;;;7.44;100.00;96958.00;5398464;26;19961;-51
2024/04/17 05:54:13;;;;;;;;;;;;;;;7.48;100.00;96949.94;5416238;26;19975;-52
2024/04/17 05:56:38;;;;;;;;;;;;;;;7.41;100.00;96950.44;5399497;26;19940;-52
2024/04/17 05:59:03;;;;;;;;;;;;;;;7.38;100.00;96958.38;5415922;26;19936;-51
2024/04/17 06:01:29;;;;;;;;;;;;;;;7.38;100.00;96950.59;5413670;26;19971;-51
2024/04/17 06:03:54;;;;;;;;;;;;;;;7.32;100.00;96958.72;5415984;26;19993;-51
2024/04/17 06:06:19;;;;;;;;;;;;;;;7.13;100.00;96959.00;5415458;26;20324;-51
2024/04/17 06:08:44;;;;;;;;;;;;;;;7.30;100.00;96966.56;5413532;26;19929;-52
2024/04/17 06:11:10;;;;;;;;;;;;;;;7.36;100.00;96968.81;5411922;26;19966;-51
2024/04/17 06:13:35;;;;;;;;;;;;;;;7.37;100.00;96967.88;5379688;26;20073;-51
2024/04/17 06:16:00;;;;;;;;;;;;;;;7.26;100.00;96970.28;5392251;26;20370;-51
2024/04/17 06:18:25;;;;;;;;;;;;;;;7.31;100.00;96968.25;5418869;26;19969;-51
2024/04/17 06:20:51;;;;;;;;;;;;;;;7.50;100.00;96973.97;5415743;26;19929;-51
2024/04/17 06:23:16;;;;;;;;;;;;;;;7.56;100.00;96978.78;5418508;26;20027;-52
2024/04/17 06:25:42;;;;;;;;;;;;;;;7.70;100.00;96970.19;5396260;26;20320;-52
2024/04/17 06:28:07;;;;;;;;;;;;;;;7.67;100.00;96972.94;5416968;26;19929;-52
2024/04/17 06:30:32;;;;;;;;;;;;;;;7.72;100.00;96978.69;5416575;26;19932;-53
2024/04/17 06:32:58;;;;;;;;;;;;;;;7.75;100.00;96979.31;5418985;26;19966;-53
2024/04/17 06:35:23;;;;;;;;;;;;;;;7.84;100.00;96988.28;5396500;26;19987;-52
2024/04/17 06:37:48;;;;;;;;;;;;;;;7.66;100.00;96977.31;5415456;26;19962;-52
2024/04/17 06:40:13;;;;;;;;;;;;;;;7.64;100.00;96980.91;5417604;26;20052;-53
2024/04/17 06:42:39;;;;;;;;;;;;;;;7.62;100.00;96981.00;5385917;26;19982;-53
2024/04/17 06:45:06;;;;;;;;;;;;;;;7.71;100.00;96983.06;5418509;26;19936;-52
2024/04/17 06:47:31;;;;;;;;;;;;;;;7.69;100.00;96984.88;5415646;26;19936;-52
2024/04/17 06:49:57;;;;;;;;;;;;;;;7.76;100.00;96981.00;5415858;26;20267;-53
2024/04/17 06:52:23;;;;;;;;;;;;;;;7.84;100.00;96991.72;5417490;26;20328;-52
2024/04/17 06:54:48;;;;;;;;;;;;;;;7.97;100.00;96990.06;5416822;26;20418;-52
2024/04/17 06:57:13;;;;;;;;;;;;;;;8.08;100.00;96981.59;5417631;26;19963;-52
2024/04/17 06:59:38;;;;;;;;;;;;;;;8.17;100.00;96986.19;5416555;26;19965;-53
2024/04/17 07:02:04;;;;;;;;;;;;;;;8.32;100.00;96993.88;5417725;26;19967;-53
2024/04/17 07:04:29;;;;;;;;;;;;;;;8.61;100.00;96992.84;5415770;26;19982;-52
2024/04/17 07:06:54;;;;;;;;;;;;;;;8.53;100.00;96994.25;5406039;26;19960;-52
2024/04/17 07:09:19;;;;;;;;;;;;;;;8.44;100.00;96995.69;5405123;26;19972;-53
2024/04/17 07:11:45;;;;;;;;;;;;;;;8.30;100.00;96995.72;5406868;26;19929;-52
2024/04/17 07:14:10;;;;;;;;;;;;;;;8.25;100.00;96995.19;5411566;26;19962;-52
2024/04/17 07:16:35;;;;;;;;;;;;;;;8.20;100.00;96994.63;5416032;26;19979;-53
2024/04/17 07:19:00;;;;;;;;;;;;;;;8.16;100.00;97000.91;5412873;26;19957;-53
2024/04/17 07:21:26;;;;;;;;;;;;;;;8.19;100.00;97000.75;5431636;26;19967;-53
2024/04/17 07:23:51;;;;;;;;;;;;;;;8.24;100.00;97001.31;5416115;26;20411;-53
2024/04/17 07:26:16;;;;;;;;;;;;;;;8.20;100.00;96999.81;5411598;26;19970;-54
2024/04/17 07:28:41;;;;;;;;;;;;;;;8.24;100.00;96998.72;5408326;26;19967;-54
2024/04/17 07:31:07;;;;;;;;;;;;;;;8.26;100.00;97002.03;5409501;26;20041;-54
2024/04/17 07:33:33;;;;;;;;;;;;;;;8.55;100.00;97002.78;5414691;26;21419;-52
2024/04/17 07:35:59;;;;;;;;;;;;;;;8.38;100.00;97009.03;5414527;26;19968;-54
2024/04/17 07:38:24;;;;;;;;;;;;;;;8.42;100.00;97013.09;5408022;26;20045;-52
2024/04/17 07:40:56;;;;;;;;;;;;;;;8.40;100.00;97003.75;5412834;26;19983;-52
2024/04/17 07:43:22;;;;;;;;;;;;;;;8.53;100.00;97008.06;5409442;26;19990;-53
2024/04/17 07:45:50;;;;;;;;;;;;;;;8.75;100.00;97010.09;5415341;26;20360;-52
2024/04/17 07:48:15;;;;;;;;;;;;;;;8.83;100.00;97010.44;5401625;26;19957;-53
2024/04/17 07:50:41;;;;;;;;;;;;;;;9.16;100.00;97014.22;5408011;26;19986;-54
2024/04/17 07:53:06;;;;;;;;;;;;;;;9.10;100.00;97012.06;5403510;26;19943;-52
2024/04/17 07:55:32;;;;;;;;;;;;;;;9.10;100.00;97014.66;5407466;26;19975;-52
2024/04/17 07:57:57;;;;;;;;;;;;;;;8.86;100.00;97013.66;5407287;26;19929;-52
2024/04/17 08:00:22;;;;;;;;;;;;;;;8.85;100.00;97021.53;5409001;26;20050;-52
2024/04/17 08:02:48;;;;;;;;;;;;;;;8.66;100.00;97013.28;5404568;26;19929;-54
2024/04/17 08:05:13;;;;;;;;;;;;;;;8.60;100.00;97024.88;5407311;26;19959;-54
2024/04/17 08:07:38;;;;;;;;;;;;;;;8.34;100.00;97027.47;5412060;26;20292;-53
2024/04/17 08:10:03;;;;;;;;;;;;;;;8.31;100.00;97025.06;5391036;26;20257;-52
2024/04/17 08:12:29;;;;;;;;;;;;;;;8.27;100.00;97034.78;5404888;26;19978;-54
2024/04/17 08:14:54;;;;;;;;;;;;;;;8.16;100.00;97021.63;5389932;26;19929;-53
2024/04/17 08:17:19;;;;;;;;;;;;;;;8.16;100.00;97021.63;5410201;26;19985;-54
2024/04/17 08:19:44;;;;;;;;;;;;;;;8.14;100.00;97027.84;5408004;26;20497;-55
2024/04/17 08:22:12;;;;;;;;;;;;;;;8.33;100.00;97026.63;5413868;26;20053;-54
2024/04/17 08:24:37;;;;;;;;;;;;;;;8.34;100.00;97024.88;5412309;26;20050;-53
2024/04/17 08:27:03;;;;;;;;;;;;;;;8.34;100.00;97030.88;5414161;26;19965;-53
2024/04/17 08:29:28;;;;;;;;;;;;;;;8.37;100.00;97035.06;5396627;26;20050;-54
2024/04/17 08:31:53;;;;;;;;;;;;;;;8.19;100.00;97031.84;5408376;26;20288;-53
2024/04/17 08:34:18;;;;;;;;;;;;;;;8.24;100.00;97037.59;5404086;26;20354;-54
2024/04/17 08:36:44;;;;;;;;;;;;;;;8.31;100.00;97036.28;5410700;26;19960;-52
2024/04/17 08:39:09;;;;;;;;;;;;;;;8.05;100.00;97042.22;5417098;26;19944;-54
2024/04/17 08:41:37;;;;;;;;;;;;;;;8.21;100.00;97030.00;5416391;26;19996;-53
2024/04/17 08:44:05;;;;;;;;;;;;;;;8.03;100.00;97038.88;5402337;26;19999;-54
2024/04/17 08:46:32;;;;;;;;;;;;;;;8.20;100.00;97043.03;5407151;26;20411;-54
2024/04/17 08:48:57;;;;;;;;;;;;;;;8.12;100.00;97032.28;5412091;26;19964;-53
2024/04/17 08:51:25;;;;;;;;;;;;;;;8.26;100.00;97035.72;5420530;26;19963;-52
2024/04/17 08:53:52;;;;;;;;;;;;;;;8.46;100.00;97035.31;5419461;26;19970;-52
2024/04/17 08:56:18;;;;;;;;;;;;;;;8.96;100.00;97032.06;5419625;26;20284;-52
2024/04/17 08:58:45;;;;;;;;;;;;;;;9.35;100.00;97043.22;5399897;26;19929;-52
2024/04/17 09:01:10;;;;;;;;;;;;;;;9.55;100.00;97040.13;5419377;26;20052;-51
2024/04/17 09:03:36;;;;;;;;;;;;;;;10.55;100.00;97034.78;5418753;26;19979;-53
2024/04/17 09:06:01;;;;;;;;;;;;;;;10.58;100.00;97029.38;5415469;26;19974;-52
2024/04/17 09:08:27;;;;;;;;;;;;;;;10.79;100.00;97027.81;5418869;26;19970;-53
2024/04/17 09:10:54;;;;;;;;;;;;;;;11.11;100.00;97031.50;5405514;26;19989;-52
2024/04/17 09:13:20;;;;;;;;;;;;;;;10.58;100.00;97029.38;5419685;26;19970;-52
2024/04/17 09:15:45;;;;;;;;;;;;;;;10.77;100.00;97031.47;5419233;26;19969;-52
2024/04/17 09:18:10;;;;;;;;;;;;;;;10.78;99.83;97031.38;5414460;26;19984;-52
2024/04/17 09:20:36;;;;;;;;;;;;;;;10.77;98.66;97034.06;5375658;26;19937;-52
2024/04/17 09:23:01;;;;;;;;;;;;;;;10.97;97.83;97026.50;5413534;26;20363;-53
2024/04/17 09:25:27;;;;;;;;;;;;;;;10.39;100.00;97029.03;5386830;26;20298;-52
2024/04/17 09:27:52;;;;;;;;;;;;;;;9.89;100.00;97038.66;5411797;26;19928;-54
2024/04/17 09:30:18;;;;;;;;;;;;;;;9.93;100.00;97050.50;5419503;26;19982;-54
2024/04/17 09:32:43;;;;;;;;;;;;;;;9.06;100.00;97052.13;5418863;26;20507;-52
2024/04/17 09:35:09;;;;;;;;;;;;;;;8.94;100.00;97057.28;5419462;26;19929;-53
2024/04/17 09:37:35;;;;;;;;;;;;;;;8.99;100.00;97053.44;5419127;26;19962;-54
2024/04/17 09:40:07;;;;;;;;;;;;;;;8.89;100.00;97060.16;5419272;26;19972;-54
2024/04/17 09:42:37;;;;;;;;;;;;;;;8.88;100.00;97058.50;5418773;26;19973;-53
2024/04/17 09:45:03;;;;;;;;;;;;;;;8.97;100.00;97062.25;5419248;26;19966;-53
2024/04/17 09:47:28;;;;;;;;;;;;;;;8.97;100.00;97067.44;5407035;26;20376;-54
2024/04/17 09:49:54;;;;;;;;;;;;;;;9.03;100.00;97067.88;5417953;26;20457;-54
2024/04/17 09:52:20;;;;;;;;;;;;;;;8.90;100.00;97067.00;5412806;26;20045;-53
2024/04/17 09:54:45;;;;;;;;;;;;;;;8.79;100.00;97072.06;5418947;26;20018;-54
2024/04/17 09:57:11;;;;;;;;;;;;;;;8.94;100.00;97071.06;5419291;26;19929;-52
2024/04/17 09:59:37;;;;;;;;;;;;;;;8.85;100.00;97069.06;5417924;26;19989;-51
2024/04/17 10:02:03;;;;;;;;;;;;;;;9.26;100.00;97069.81;5417012;26;19974;-51
2024/04/17 10:04:29;;;;;;;;;;;;;;;9.24;100.00;97071.69;5387701;26;19985;-52
2024/04/17 10:06:55;;;;;;;;;;;;;;;9.50;100.00;97070.78;5417482;26;20271;-53
2024/04/17 10:09:21;;;;;;;;;;;;;;;9.27;100.00;97071.47;5417559;26;19936;-55
2024/04/17 10:11:50;;;;;;;;;;;;;;;9.23;100.00;97072.59;5382174;26;20385;-54
2024/04/17 10:14:17;;;;;;;;;;;;;;;9.17;100.00;97078.22;5409966;26;19967;-53
2024/04/17 10:16:42;;;;;;;;;;;;;;;9.22;100.00;97083.91;5418401;26;20432;-52
2024/04/17 10:19:08;;;;;;;;;;;;;;;9.10;100.00;97079.53;5418810;26;19944;-55
2024/04/17 10:21:33;;;;;;;;;;;;;;;9.08;100.00;97086.56;5418387;26;19963;-53
2024/04/17 10:24:01;;;;;;;;;;;;;;;9.28;100.00;97088.69;5419116;26;19992;-52
2024/04/17 10:26:42;;;;;;;;;;;;;;;9.81;100.00;97083.34;5416984;26;20244;-53
2024/04/17 10:29:34;;;;;;;;;;;;;;;9.95;100.00;97088.44;5391435;26;19994;-52
2024/04/17 10:32:04;;;;;;;;;;;;;;;9.97;97.46;97084.00;5397300;26;19980;-54
2024/04/17 10:34:40;;;;;;;;;;;;;;;9.87;97.73;97087.31;5380924;26;19989;-53
2024/04/17 10:37:07;;;;;;;;;;;;;;;9.69;99.41;97072.97;5407734;26;20002;-54
2024/04/17 10:39:33;;;;;;;;;;;;;;;9.88;100.00;97082.00;5412173;26;19968;-54
2024/04/17 10:41:58;;;;;;;;;;;;;;;9.67;100.00;97080.03;5401206;26;20269;-53
2024/04/17 10:44:23;;;;;;;;;;;;;;;9.66;100.00;97081.78;5406821;26;20059;-53
2024/04/17 10:46:59;;;;;;;;;;;;;;;9.95;99.33;97083.25;5407162;26;19985;-54
2024/04/17 10:49:25;;;;;;;;;;;;;;;10.23;97.67;97085.66;5404687;26;20378;-51
2024/04/17 10:51:54;;;;;;;;;;;;;;;10.59;94.79;97077.88;5375020;26;20007;-54
2024/04/17 10:54:20;;;;;;;;;;;;;;;11.27;93.50;97081.50;5405558;26;20049;-52
2024/04/17 10:56:45;;;;;;;;;;;;;;;11.70;91.00;97075.63;5414646;26;20294;-53
2024/04/17 10:59:11;;;;;;;;;;;;;;;12.17;88.04;97074.63;5400864;26;19965;-52
2024/04/17 11:01:37;;;;;;;;;;;;;;;12.59;84.96;97063.41;5404134;26;19995;-53
2024/04/17 11:04:02;;;;;;;;;;;;;;;12.47;84.83;97073.06;5406024;26;19929;-54
2024/04/17 11:06:28;;;;;;;;;;;;;;;12.74;86.29;97075.25;5411390;26;19967;-53
2024/04/17 11:08:53;;;;;;;;;;;;;;;12.87;82.64;97068.09;5404431;26;19966;-53
2024/04/17 11:11:18;;;;;;;;;;;;;;;14.05;78.08;97060.78;5406593;26;19944;-52
2024/04/17 11:13:44;;;;;;;;;;;;;;;13.80;78.59;97060.34;5372752;26;19981;-53
2024/04/17 11:16:10;;;;;;;;;;;;;;;13.33;78.72;97058.22;5405528;26;19977;-52
2024/04/17 11:18:36;;;;;;;;;;;;;;;12.86;79.39;97058.63;5399073;26;19966;-54
2024/04/17 11:21:02;;;;;;;;;;;;;;;12.41;79.62;97046.59;5403600;26;19936;-51
2024/04/17 11:23:37;;;;;;;;;;;;;;;11.99;80.64;97053.41;5408184;26;19967;-53
2024/04/17 11:26:03;;;;;;;;;;;;;;;11.65;84.30;97056.88;5403498;26;19936;-53
2024/04/17 11:28:28;;;;;;;;;;;;;;;11.05;83.50;97056.19;5406296;26;19962;-53
2024/04/17 11:30:53;;;;;;;;;;;;;;;11.96;86.40;97065.84;5404856;26;19959;-54
2024/04/17 11:33:19;;;;;;;;;;;;;;;12.91;82.71;97053.84;5405010;26;20440;-51
2024/04/17 11:35:44;;;;;;;;;;;;;;;14.43;75.43;97052.28;5368770;26;20069;-52
2024/04/17 11:38:13;;;;;;;;;;;;;;;14.45;70.68;97052.97;5402661;26;20218;-54
2024/04/17 11:40:42;;;;;;;;;;;;;;;15.05;68.98;97055.44;5374750;26;19993;-52
2024/04/17 11:43:14;;;;;;;;;;;;;;;14.42;68.04;97046.19;5404341;26;20565;-52
2024/04/17 11:45:39;;;;;;;;;;;;;;;15.07;66.49;97048.25;5394664;26;20408;-52
2024/04/17 11:48:04;;;;;;;;;;;;;;;14.47;66.76;97043.16;5371385;26;19929;-53
2024/04/17 11:50:29;;;;;;;;;;;;;;;13.49;71.28;97042.94;5396994;26;19936;-52
2024/04/17 11:52:55;;;;;;;;;;;;;;;12.73;75.12;97047.50;5415474;26;20298;-52
2024/04/17 11:55:20;;;;;;;;;;;;;;;11.93;78.12;97061.69;5398597;26;20231;-53
2024/04/17 11:57:45;;;;;;;;;;;;;;;11.80;79.65;97058.34;5414934;26;19997;-55
2024/04/17 12:00:10;;;;;;;;;;;;;;;11.71;78.31;97060.81;5407894;26;20312;-54
2024/04/17 12:02:36;;;;;;;;;;;;;;;11.77;80.56;97055.16;5409330;26;19929;-52
2024/04/17 12:05:01;;;;;;;;;;;;;;;11.81;82.91;97061.78;5391177;26;19929;-53
2024/04/17 12:07:26;;;;;;;;;;;;;;;12.08;79.97;97059.66;5415555;26;20009;-53
2024/04/17 12:09:51;;;;;;;;;;;;;;;11.80;81.80;97060.13;5390226;26;20048;-53
2024/04/17 12:12:17;;;;;;;;;;;;;;;11.80;81.68;97057.50;5401336;26;20021;-53
2024/04/17 12:14:42;;;;;;;;;;;;;;;11.81;80.52;97062.63;5400632;26;19977;-53
2024/04/17 12:17:07;;;;;;;;;;;;;;;11.70;81.97;97049.56;5391420;26;19930;-52
2024/04/17 12:19:33;;;;;;;;;;;;;;;11.75;80.70;97057.03;5396729;26;19988;-54
2024/04/17 12:21:59;;;;;;;;;;;;;;;11.86;79.49;97046.63;5404858;26;20407;-52
2024/04/17 12:26:49;;;;;;;;;;;;;;;12.38;77.68;97042.44;5400115;26;19940;-54
2024/04/17 12:27:10;;;;;;;;;;;;;;;13.80;74.06;97047.25;5416034;26;20309;-52
2024/04/17 12:29:35;;;;;;;;;;;;;;;14.69;70.91;97042.97;5402331;26;19975;-53
2024/04/17 12:32:00;;;;;;;;;;;;;;;16.04;65.29;97031.31;5403261;26;19999;-54
2024/04/17 12:34:25;;;;;;;;;;;;;;;17.02;62.71;97031.38;5416469;26;20268;-54
2024/04/17 12:36:50;;;;;;;;;;;;;;;14.95;64.18;97028.38;5360555;26;20282;-53